createdAt,value
2023-02-19T00:01:12.869Z,10.00
2023-02-19T00:03:39.995Z,10.00
2023-02-19T00:06:07.900Z,10.00
2023-02-19T00:08:35.354Z,10.00
2023-02-19T00:11:06.489Z,10.00
2023-02-19T00:13:36.904Z,10.00
2023-02-19T00:16:10.506Z,10.00
2023-02-19T00:18:37.014Z,9.90
2023-02-19T00:21:03.678Z,9.90
2023-02-19T00:23:30.372Z,9.90
2023-02-19T00:26:03.246Z,9.90
2023-02-19T00:28:35.838Z,9.90
2023-02-19T00:31:10.566Z,9.80
2023-02-19T00:33:37.273Z,9.80
2023-02-19T00:36:05.110Z,9.90
2023-02-19T00:38:32.260Z,9.80
2023-02-19T00:40:59.008Z,9.80
2023-02-19T00:43:25.687Z,9.80
2023-02-19T00:45:52.353Z,9.80
2023-02-19T00:48:18.874Z,9.70
2023-02-19T00:50:45.409Z,9.80
2023-02-19T00:53:11.880Z,9.80
2023-02-19T00:55:38.437Z,9.90
2023-02-19T00:58:04.958Z,9.90
2023-02-19T01:00:33.498Z,9.90
2023-02-19T01:03:00.041Z,9.90
2023-02-19T01:05:26.603Z,9.90
2023-02-19T01:07:53.139Z,9.90
2023-02-19T01:10:19.720Z,9.90
2023-02-19T01:12:46.398Z,9.90
2023-02-19T01:15:12.985Z,9.90
2023-02-19T01:17:39.537Z,9.80
2023-02-19T01:20:06.265Z,9.80
2023-02-19T01:22:32.808Z,9.80
2023-02-19T01:24:59.352Z,9.80
2023-02-19T01:27:25.875Z,9.80
2023-02-19T01:29:52.396Z,9.80
2023-02-19T01:32:19.140Z,9.80
2023-02-19T01:34:45.762Z,9.80
2023-02-19T01:37:12.409Z,9.70
2023-02-19T01:39:39.460Z,9.70
2023-02-19T01:42:11.482Z,9.70
2023-02-19T01:44:38.050Z,9.70
2023-02-19T01:47:04.669Z,9.70
2023-02-19T01:49:36.535Z,9.70
2023-02-19T01:52:23.219Z,9.70
2023-02-19T01:54:50.382Z,9.70
2023-02-19T01:57:19.037Z,9.70
2023-02-19T01:59:46.948Z,9.70
2023-02-19T02:02:13.619Z,9.70
2023-02-19T02:04:40.168Z,9.70
2023-02-19T02:07:29.576Z,9.80
2023-02-19T02:10:15.204Z,9.80
2023-02-19T02:12:41.769Z,9.80
2023-02-19T02:15:08.857Z,9.70
2023-02-19T02:17:43.366Z,9.80
2023-02-19T02:20:15.979Z,9.80
2023-02-19T02:23:00.917Z,9.80
2023-02-19T02:25:33.523Z,9.80
2023-02-19T02:28:10.419Z,9.80
2023-02-19T02:30:39.740Z,9.80
2023-02-19T02:33:12.268Z,9.90
2023-02-19T02:35:42.400Z,9.90
2023-02-19T02:38:11.161Z,9.90
2023-02-19T02:40:39.775Z,9.90
2023-02-19T02:43:06.773Z,9.90
2023-02-19T02:45:36.789Z,9.90
2023-02-19T02:48:07.895Z,9.90
2023-02-19T02:50:38.174Z,9.90
2023-02-19T02:53:29.999Z,9.90
2023-02-19T02:55:56.918Z,9.90
2023-02-19T02:58:24.601Z,10.00
2023-02-19T03:01:13.278Z,9.90
2023-02-19T03:03:42.191Z,10.00
2023-02-19T03:06:10.939Z,10.00
2023-02-19T03:08:55.893Z,10.00
2023-02-19T03:11:41.075Z,10.00
2023-02-19T03:14:29.645Z,10.00
2023-02-19T03:17:17.700Z,10.00
2023-02-19T03:19:49.781Z,10.10
2023-02-19T03:22:22.304Z,10.20
2023-02-19T03:25:12.794Z,10.20
2023-02-19T03:27:41.071Z,10.20
2023-02-19T03:30:12.661Z,10.20
2023-02-19T03:32:44.386Z,10.20
2023-02-19T03:35:16.412Z,10.10
2023-02-19T03:37:49.679Z,9.90
2023-02-19T03:40:16.492Z,9.90
2023-02-19T03:43:05.362Z,9.80
2023-02-19T03:45:31.985Z,9.80
2023-02-19T03:48:18.899Z,9.80
2023-02-19T03:51:06.037Z,9.90
2023-02-19T03:53:35.763Z,9.90
2023-02-19T03:56:08.230Z,9.80
2023-02-19T03:58:44.798Z,9.80
2023-02-19T04:01:21.968Z,9.90
2023-02-19T04:03:59.445Z,9.90
2023-02-19T04:06:31.000Z,9.80
2023-02-19T04:08:59.717Z,9.90
2023-02-19T04:11:29.477Z,9.90
2023-02-19T04:14:16.725Z,9.90
2023-02-19T04:16:45.701Z,9.90
2023-02-19T04:19:14.749Z,9.90
2023-02-19T04:21:42.198Z,9.90
2023-02-19T04:24:16.935Z,9.90
2023-02-19T04:26:46.886Z,10.00
2023-02-19T04:29:13.417Z,9.90
2023-02-19T04:31:40.147Z,9.90
2023-02-19T04:34:06.742Z,9.90
2023-02-19T04:36:33.807Z,9.90
2023-02-19T04:39:00.383Z,9.90
2023-02-19T04:41:26.962Z,9.90
2023-02-19T04:43:53.479Z,9.90
2023-02-19T04:46:20.177Z,9.90
2023-02-19T04:48:46.809Z,9.90
2023-02-19T04:51:13.513Z,9.90
2023-02-19T04:53:40.334Z,9.90
2023-02-19T04:56:07.769Z,10.00
2023-02-19T04:58:35.187Z,9.90
2023-02-19T05:01:02.302Z,9.90
2023-02-19T05:03:35.118Z,9.90
2023-02-19T05:06:05.892Z,9.90
2023-02-19T05:08:32.893Z,9.90
2023-02-19T05:11:00.323Z,9.90
2023-02-19T05:13:27.690Z,9.90
2023-02-19T05:15:57.626Z,9.90
2023-02-19T05:18:25.389Z,9.90
2023-02-19T05:20:52.345Z,9.90
2023-02-19T05:23:19.618Z,9.90
2023-02-19T05:25:49.295Z,9.80
2023-02-19T05:28:28.602Z,9.70
2023-02-19T05:30:55.677Z,9.70
2023-02-19T05:33:23.052Z,9.60
2023-02-19T05:35:50.733Z,9.60
2023-02-19T05:38:17.846Z,9.60
2023-02-19T05:40:44.880Z,9.50
2023-02-19T05:43:11.957Z,9.60
2023-02-19T05:45:38.711Z,9.50
2023-02-19T05:48:05.800Z,9.60
2023-02-19T05:50:33.293Z,9.60
2023-02-19T05:53:01.072Z,9.70
2023-02-19T05:55:28.161Z,9.70
2023-02-19T05:57:54.727Z,9.80
2023-02-19T06:00:21.438Z,9.80
2023-02-19T06:02:48.209Z,9.90
2023-02-19T06:05:14.851Z,9.90
2023-02-19T06:07:42.754Z,9.80
2023-02-19T06:10:10.709Z,9.70
2023-02-19T06:12:37.353Z,9.60
2023-02-19T06:15:04.607Z,9.60
2023-02-19T06:17:31.662Z,9.50
2023-02-19T06:19:58.351Z,9.50
2023-02-19T06:22:25.105Z,9.40
2023-02-19T06:24:51.693Z,9.40
2023-02-19T06:27:18.254Z,9.40
2023-02-19T06:29:44.908Z,9.40
2023-02-19T06:32:11.542Z,9.40
2023-02-19T06:34:38.147Z,9.40
2023-02-19T06:37:04.721Z,9.40
2023-02-19T06:39:31.329Z,9.40
2023-02-19T06:41:58.206Z,9.50
2023-02-19T06:44:25.219Z,9.40
2023-02-19T06:46:54.556Z,9.40
2023-02-19T06:49:21.636Z,9.50
2023-02-19T06:51:48.291Z,9.40
2023-02-19T06:54:14.849Z,9.50
2023-02-19T06:56:41.639Z,9.50
2023-02-19T06:59:10.200Z,9.50
2023-02-19T07:01:37.542Z,9.50
2023-02-19T07:04:04.236Z,9.50
2023-02-19T07:06:30.992Z,9.50
2023-02-19T07:08:58.301Z,9.50
2023-02-19T07:11:25.380Z,9.60
2023-02-19T07:13:55.980Z,9.60
2023-02-19T07:16:22.839Z,9.60
2023-02-19T07:18:50.176Z,9.60
2023-02-19T07:21:17.469Z,9.60
2023-02-19T07:23:44.614Z,9.60
2023-02-19T07:26:11.842Z,9.60
2023-02-19T07:28:40.003Z,9.60
2023-02-19T07:31:06.575Z,9.60
2023-02-19T07:33:33.177Z,9.60
2023-02-19T07:35:59.775Z,9.60
2023-02-19T07:38:26.487Z,9.50
2023-02-19T07:40:56.846Z,9.60
2023-02-19T07:43:29.491Z,9.50
2023-02-19T07:45:56.124Z,9.50
2023-02-19T07:48:22.887Z,9.40
2023-02-19T07:50:56.075Z,9.30
2023-02-19T07:53:23.244Z,9.30
2023-02-19T07:55:49.985Z,9.30
2023-02-19T07:58:16.707Z,9.30
2023-02-19T08:00:43.721Z,9.30
2023-02-19T08:03:10.978Z,9.30
2023-02-19T08:05:38.825Z,9.30
2023-02-19T08:08:06.326Z,9.30
2023-02-19T08:10:51.761Z,9.30
2023-02-19T08:13:23.002Z,9.30
2023-02-19T08:15:50.868Z,9.30
2023-02-19T08:18:21.098Z,9.30
2023-02-19T08:20:47.887Z,9.30
2023-02-19T08:23:14.996Z,9.30
2023-02-19T08:25:41.944Z,9.20
2023-02-19T08:28:11.799Z,9.20
2023-02-19T08:30:39.401Z,9.20
2023-02-19T08:33:06.741Z,9.30
2023-02-19T08:35:35.363Z,9.30
2023-02-19T08:38:02.137Z,9.30
2023-02-19T08:40:28.692Z,9.30
2023-02-19T08:42:55.195Z,9.40
2023-02-19T08:45:23.026Z,9.40
2023-02-19T08:47:49.858Z,9.50
2023-02-19T08:50:16.376Z,9.60
2023-02-19T08:52:42.865Z,9.70
2023-02-19T08:55:09.382Z,9.80
2023-02-19T08:57:37.662Z,9.80
2023-02-19T09:00:05.161Z,9.90
2023-02-19T09:02:31.657Z,10.00
2023-02-19T09:04:58.201Z,10.10
2023-02-19T09:07:24.800Z,10.00
2023-02-19T09:09:51.279Z,10.10
2023-02-19T09:12:17.952Z,10.20
2023-02-19T09:14:44.541Z,10.20
2023-02-19T09:17:11.231Z,10.20
2023-02-19T09:19:38.038Z,10.20
2023-02-19T09:22:04.723Z,10.20
2023-02-19T09:24:31.702Z,10.20
2023-02-19T09:26:58.744Z,10.40
2023-02-19T09:29:26.207Z,10.40
2023-02-19T09:31:56.627Z,10.50
2023-02-19T09:34:23.258Z,10.50
2023-02-19T09:36:49.865Z,10.60
2023-02-19T09:39:16.364Z,10.90
2023-02-19T09:41:46.305Z,10.90
2023-02-19T09:44:39.319Z,10.80
2023-02-19T09:47:07.650Z,10.80
2023-02-19T09:49:34.160Z,10.80
2023-02-19T09:52:07.217Z,10.90
2023-02-19T09:54:34.364Z,10.80
2023-02-19T09:57:01.767Z,10.50
2023-02-19T09:59:50.314Z,10.50
2023-02-19T10:02:18.533Z,10.40
2023-02-19T10:04:46.297Z,10.50
2023-02-19T10:07:17.013Z,10.50
2023-02-19T10:09:55.497Z,10.50
2023-02-19T10:12:25.364Z,10.50
2023-02-19T10:14:54.945Z,10.40
2023-02-19T10:17:26.173Z,10.50
2023-02-19T10:19:53.309Z,10.40
2023-02-19T10:22:20.399Z,10.40
2023-02-19T10:24:49.761Z,10.50
2023-02-19T10:27:16.258Z,10.60
2023-02-19T10:29:43.858Z,10.50
2023-02-19T10:32:20.817Z,10.30
2023-02-19T10:34:47.755Z,10.30
2023-02-19T10:37:15.936Z,10.30
2023-02-19T10:39:46.624Z,10.30
2023-02-19T10:42:17.803Z,10.30
2023-02-19T10:44:45.994Z,10.40
2023-02-19T10:47:17.577Z,10.30
2023-02-19T10:49:46.033Z,10.20
2023-02-19T10:52:17.949Z,10.10
2023-02-19T10:54:45.511Z,10.00
2023-02-19T10:57:15.175Z,10.00
2023-02-19T10:59:58.009Z,9.80
2023-02-19T11:02:25.868Z,9.80
2023-02-19T11:05:16.150Z,9.70
2023-02-19T11:07:53.339Z,9.80
2023-02-19T11:10:30.500Z,9.90
2023-02-19T11:12:59.103Z,9.90
2023-02-19T11:15:33.663Z,10.10
2023-02-19T11:18:12.773Z,10.30
2023-02-19T11:20:46.524Z,10.30
2023-02-19T11:23:15.594Z,10.40
2023-02-19T11:25:52.995Z,10.50
2023-02-19T11:28:48.842Z,10.50
2023-02-19T11:31:22.721Z,10.60
2023-02-19T11:33:49.336Z,10.70
2023-02-19T11:36:15.872Z,10.90
2023-02-19T11:38:42.578Z,10.80
2023-02-19T11:41:22.868Z,11.10
2023-02-19T11:44:12.524Z,11.20
2023-02-19T11:46:46.522Z,10.90
2023-02-19T11:49:21.201Z,10.80
2023-02-19T11:51:52.298Z,10.60
2023-02-19T11:54:21.948Z,10.90
2023-02-19T11:56:52.981Z,10.90
2023-02-19T11:59:23.757Z,11.20
2023-02-19T12:02:13.170Z,11.10
2023-02-19T12:04:58.497Z,11.30
2023-02-19T12:07:25.015Z,11.30
2023-02-19T12:10:00.744Z,11.00
2023-02-19T12:12:46.085Z,10.90
2023-02-19T12:15:22.377Z,10.80
2023-02-19T12:17:48.956Z,10.80
2023-02-19T12:20:22.415Z,10.70
2023-02-19T12:22:52.984Z,10.50
2023-02-19T12:25:28.389Z,10.60
2023-02-19T12:28:07.215Z,10.60
2023-02-19T12:30:53.180Z,10.60
2023-02-19T12:33:22.837Z,10.60
2023-02-19T12:35:53.664Z,10.50
2023-02-19T12:38:23.524Z,10.60
2023-02-19T12:40:57.037Z,10.60
2023-02-19T12:43:23.975Z,10.50
2023-02-19T12:45:53.412Z,10.60
2023-02-19T12:48:31.102Z,10.20
2023-02-19T12:51:00.684Z,10.20
2023-02-19T12:53:34.768Z,10.10
2023-02-19T12:56:04.317Z,10.10
2023-02-19T12:58:53.237Z,10.10
2023-02-19T13:01:23.984Z,10.10
2023-02-19T13:04:08.550Z,10.20
2023-02-19T13:06:35.217Z,10.30
2023-02-19T13:09:11.785Z,10.40
2023-02-19T13:11:47.543Z,10.40
2023-02-19T13:14:26.263Z,10.40
2023-02-19T13:16:55.893Z,10.50
2023-02-19T13:19:24.757Z,10.50
2023-02-19T13:22:13.180Z,10.60
2023-02-19T13:24:41.617Z,10.70
2023-02-19T13:27:28.317Z,10.70
2023-02-19T13:30:01.398Z,10.90
2023-02-19T13:32:33.985Z,11.10
2023-02-19T13:35:19.178Z,11.10
2023-02-19T13:37:46.187Z,11.10
2023-02-19T13:40:28.074Z,10.80
2023-02-19T13:42:55.671Z,10.90
2023-02-19T13:45:24.554Z,10.80
2023-02-19T13:47:53.892Z,10.90
2023-02-19T13:50:25.574Z,10.80
2023-02-19T13:52:53.318Z,10.90
2023-02-19T13:55:40.754Z,10.80
2023-02-19T13:58:26.695Z,10.80
2023-02-19T14:00:54.653Z,10.90
2023-02-19T14:03:39.697Z,10.90
2023-02-19T14:06:07.710Z,10.80
2023-02-19T14:08:49.637Z,10.60
2023-02-19T14:11:16.824Z,10.60
2023-02-19T14:13:49.630Z,10.60
2023-02-19T14:16:28.538Z,10.70
2023-02-19T14:18:56.287Z,10.70
2023-02-19T14:21:25.858Z,10.60
2023-02-19T14:23:53.893Z,10.60
2023-02-19T14:26:21.002Z,10.50
2023-02-19T14:28:48.265Z,10.40
2023-02-19T14:31:29.449Z,10.40
2023-02-19T14:33:58.342Z,10.30
2023-02-19T14:36:29.604Z,10.20
2023-02-19T14:38:57.883Z,10.20
2023-02-19T14:41:24.762Z,10.20
2023-02-19T14:43:52.493Z,10.20
2023-02-19T14:46:25.357Z,10.30
2023-02-19T14:48:52.122Z,10.30
2023-02-19T14:51:21.588Z,10.20
2023-02-19T14:53:48.948Z,10.20
2023-02-19T14:56:19.056Z,10.30
2023-02-19T14:58:45.594Z,10.30
2023-02-19T15:01:28.358Z,10.40
2023-02-19T15:03:56.515Z,10.40
2023-02-19T15:06:24.439Z,10.50
2023-02-19T15:08:57.372Z,10.40
2023-02-19T15:11:25.417Z,10.40
2023-02-19T15:14:05.625Z,10.50
2023-02-19T15:16:33.360Z,10.40
2023-02-19T15:19:00.105Z,10.40
2023-02-19T15:21:31.401Z,10.20
2023-02-19T15:24:01.527Z,10.20
2023-02-19T15:26:35.826Z,10.20
2023-02-19T15:29:04.784Z,10.20
2023-02-19T15:31:31.521Z,10.20
2023-02-19T15:33:58.185Z,10.20
2023-02-19T15:36:26.781Z,10.20
2023-02-19T15:38:54.825Z,10.20
2023-02-19T15:41:25.256Z,10.20
2023-02-19T15:43:57.842Z,10.20
2023-02-19T15:46:25.314Z,10.20
2023-02-19T15:48:55.064Z,10.20
2023-02-19T15:51:28.565Z,10.10
2023-02-19T15:54:00.274Z,10.10
2023-02-19T15:56:30.480Z,10.10
2023-02-19T15:59:20.141Z,10.10
2023-02-19T16:01:46.838Z,10.10
2023-02-19T16:04:14.600Z,10.00
2023-02-19T16:06:51.696Z,10.00
2023-02-19T16:09:23.414Z,10.00
2023-02-19T16:11:54.140Z,9.90
2023-02-19T16:14:28.069Z,10.00
2023-02-19T16:16:57.086Z,9.90
2023-02-19T16:19:28.614Z,9.90
2023-02-19T16:21:55.641Z,9.90
2023-02-19T16:24:26.947Z,9.90
2023-02-19T16:26:54.185Z,9.80
2023-02-19T16:29:25.596Z,9.80
2023-02-19T16:31:54.381Z,9.80
2023-02-19T16:34:39.951Z,9.80
2023-02-19T16:37:25.433Z,9.80
2023-02-19T16:40:07.236Z,9.80
2023-02-19T16:42:51.909Z,9.80
2023-02-19T16:45:18.524Z,9.70
2023-02-19T16:47:48.315Z,9.70
2023-02-19T16:50:16.101Z,9.80
2023-02-19T16:52:51.790Z,9.80
2023-02-19T16:55:18.276Z,9.70
2023-02-19T16:57:44.984Z,9.70
2023-02-19T17:00:22.265Z,9.70
2023-02-19T17:02:49.758Z,9.70
2023-02-19T17:05:17.194Z,9.70
2023-02-19T17:07:43.775Z,9.70
2023-02-19T17:10:12.897Z,9.70
2023-02-19T17:12:39.491Z,9.70
2023-02-19T17:15:06.098Z,9.70
2023-02-19T17:17:32.665Z,9.60
2023-02-19T17:19:59.161Z,9.60
2023-02-19T17:22:25.713Z,9.60
2023-02-19T17:24:52.239Z,9.50
2023-02-19T17:27:18.839Z,9.50
2023-02-19T17:29:45.402Z,9.50
2023-02-19T17:32:12.206Z,9.50
2023-02-19T17:34:38.816Z,9.40
2023-02-19T17:37:05.346Z,9.40
2023-02-19T17:39:31.844Z,9.40
2023-02-19T17:41:58.378Z,9.40
2023-02-19T17:44:27.980Z,9.40
2023-02-19T17:46:54.603Z,9.30
2023-02-19T17:49:21.308Z,9.30
2023-02-19T17:51:47.839Z,9.30
2023-02-19T17:54:14.417Z,9.30
2023-02-19T17:56:46.009Z,9.30
2023-02-19T17:59:14.001Z,9.30
2023-02-19T18:01:40.788Z,9.30
2023-02-19T18:04:07.750Z,9.20
2023-02-19T18:06:35.991Z,9.20
2023-02-19T18:09:02.841Z,9.20
2023-02-19T18:11:29.610Z,9.30
2023-02-19T18:13:56.682Z,9.20
2023-02-19T18:16:23.543Z,9.30
2023-02-19T18:18:53.331Z,9.20
2023-02-19T18:21:24.741Z,9.20
2023-02-19T18:23:51.533Z,9.20
2023-02-19T18:26:23.097Z,9.20
2023-02-19T18:28:49.935Z,9.10
2023-02-19T18:31:16.826Z,9.10
2023-02-19T18:33:43.730Z,9.00
2023-02-19T18:36:11.542Z,9.00
2023-02-19T18:38:39.509Z,9.00
2023-02-19T18:41:06.373Z,8.80
2023-02-19T18:43:33.266Z,8.70
2023-02-19T18:46:00.141Z,8.60
2023-02-19T18:48:29.716Z,8.50
2023-02-19T18:50:56.460Z,8.40
2023-02-19T18:53:25.515Z,8.40
2023-02-19T18:55:52.272Z,8.30
2023-02-19T18:58:25.452Z,8.40
2023-02-19T19:00:58.405Z,8.30
2023-02-19T19:03:25.160Z,8.40
2023-02-19T19:05:51.988Z,8.40
2023-02-19T19:08:18.546Z,8.30
2023-02-19T19:10:45.144Z,8.40
2023-02-19T19:13:11.748Z,8.40
2023-02-19T19:15:41.171Z,8.50
2023-02-19T19:18:08.372Z,8.50
2023-02-19T19:20:34.940Z,8.50
2023-02-19T19:23:01.533Z,8.50
2023-02-19T19:25:28.116Z,8.50
2023-02-19T19:27:54.965Z,8.50
2023-02-19T19:30:21.619Z,8.50
2023-02-19T19:32:51.875Z,8.50
2023-02-19T19:35:19.267Z,8.50
2023-02-19T19:37:48.909Z,8.50
2023-02-19T19:40:16.476Z,8.50
2023-02-19T19:42:44.611Z,8.50
2023-02-19T19:45:14.434Z,8.60
2023-02-19T19:47:43.570Z,8.50
2023-02-19T19:50:12.169Z,8.50
2023-02-19T19:52:41.983Z,8.50
2023-02-19T19:55:09.132Z,8.50
2023-02-19T19:57:40.781Z,8.50
2023-02-19T20:00:08.366Z,8.50
2023-02-19T20:02:36.408Z,8.50
2023-02-19T20:05:03.190Z,8.50
2023-02-19T20:07:30.926Z,8.40
2023-02-19T20:09:57.631Z,8.40
2023-02-19T20:12:27.110Z,8.50
2023-02-19T20:14:53.692Z,8.40
2023-02-19T20:17:20.304Z,8.40
2023-02-19T20:19:46.869Z,8.40
2023-02-19T20:22:13.364Z,8.30
2023-02-19T20:24:39.885Z,8.40
2023-02-19T20:27:06.503Z,8.30
2023-02-19T20:29:35.494Z,8.30
2023-02-19T20:32:03.471Z,8.30
2023-02-19T20:34:30.493Z,8.30
2023-02-19T20:36:58.261Z,8.30
2023-02-19T20:39:28.765Z,8.30
2023-02-19T20:41:55.905Z,8.30
2023-02-19T20:44:22.428Z,8.30
2023-02-19T20:46:50.359Z,8.30
2023-02-19T20:49:18.145Z,8.30
2023-02-19T20:51:45.664Z,8.20
2023-02-19T20:54:12.674Z,8.30
2023-02-19T20:56:48.972Z,8.30
2023-02-19T20:59:16.119Z,8.30
2023-02-19T21:01:43.190Z,8.30
2023-02-19T21:04:09.842Z,8.30
2023-02-19T21:06:36.524Z,8.20
2023-02-19T21:09:03.226Z,8.20
2023-02-19T21:11:29.782Z,8.20
2023-02-19T21:13:59.017Z,8.20
2023-02-19T21:16:26.370Z,8.20
2023-02-19T21:18:53.275Z,8.10
2023-02-19T21:21:21.133Z,8.10
2023-02-19T21:23:47.817Z,8.10
2023-02-19T21:26:14.503Z,8.10
2023-02-19T21:28:41.105Z,8.10
2023-02-19T21:31:07.909Z,8.10
2023-02-19T21:33:34.645Z,8.00
2023-02-19T21:36:04.896Z,8.00
2023-02-19T21:38:32.727Z,8.00
2023-02-19T21:40:59.333Z,7.90
2023-02-19T21:43:27.881Z,7.90
2023-02-19T21:45:54.746Z,7.90
2023-02-19T21:48:21.399Z,7.80
2023-02-19T21:50:47.963Z,7.80
2023-02-19T21:53:14.927Z,7.80
2023-02-19T21:55:57.554Z,7.80
2023-02-19T21:58:25.426Z,7.80
2023-02-19T22:00:53.756Z,7.70
2023-02-19T22:03:20.813Z,7.70
2023-02-19T22:05:50.670Z,7.70
2023-02-19T22:08:21.249Z,7.70
2023-02-19T22:10:49.438Z,7.70
2023-02-19T22:13:16.231Z,7.70
2023-02-19T22:15:45.776Z,7.70
2023-02-19T22:18:12.455Z,7.70
2023-02-19T22:20:43.818Z,7.60
2023-02-19T22:23:10.555Z,7.50
2023-02-19T22:25:37.303Z,7.50
2023-02-19T22:28:04.839Z,7.40
2023-02-19T22:30:34.455Z,7.30
2023-02-19T22:33:01.163Z,7.30
2023-02-19T22:35:27.691Z,7.30
2023-02-19T22:37:54.411Z,7.20
2023-02-19T22:40:21.090Z,7.10
2023-02-19T22:42:47.703Z,7.10
2023-02-19T22:45:14.241Z,7.10
2023-02-19T22:47:42.030Z,7.10
2023-02-19T22:50:08.880Z,7.00
2023-02-19T22:52:35.423Z,7.00
2023-02-19T22:55:02.024Z,7.00
2023-02-19T22:57:28.754Z,7.00
2023-02-19T22:59:55.380Z,6.90
2023-02-19T23:02:22.454Z,6.90
2023-02-19T23:04:49.201Z,6.90
2023-02-19T23:07:16.039Z,6.80
2023-02-19T23:09:45.052Z,6.80
2023-02-19T23:12:12.434Z,6.80
2023-02-19T23:14:41.356Z,6.80
2023-02-19T23:17:10.590Z,6.80
2023-02-19T23:19:38.084Z,6.80
2023-02-19T23:22:05.282Z,6.80
2023-02-19T23:24:35.417Z,6.80
2023-02-19T23:27:02.240Z,6.70
2023-02-19T23:29:39.368Z,6.70
2023-02-19T23:32:06.024Z,6.70
2023-02-19T23:34:32.626Z,6.60
2023-02-19T23:37:00.181Z,6.60
2023-02-19T23:39:26.731Z,6.60
2023-02-19T23:41:54.662Z,6.60
2023-02-19T23:44:21.862Z,6.50
2023-02-19T23:46:49.044Z,6.50
2023-02-19T23:49:15.705Z,6.40
2023-02-19T23:51:42.257Z,6.40
2023-02-19T23:54:08.878Z,6.30
2023-02-19T23:56:35.538Z,6.20
2023-02-19T23:59:02.255Z,6.20
